createdAt,value
2019-05-14T00:00:24.936Z,85.19
2019-05-14T00:01:24.847Z,85.43
2019-05-14T00:02:24.762Z,85.05
2019-05-14T00:03:24.686Z,85.47
2019-05-14T00:04:24.601Z,85.15
2019-05-14T00:05:24.511Z,85.19
2019-05-14T00:06:24.436Z,84.62
2019-05-14T00:07:24.348Z,84.52
2019-05-14T00:08:24.287Z,84.10
2019-05-14T00:09:24.186Z,85.00
2019-05-14T00:10:24.099Z,84.95
2019-05-14T00:11:24.025Z,85.00
2019-05-14T00:12:23.937Z,85.15
2019-05-14T00:13:23.848Z,85.10
2019-05-14T00:14:35.720Z,85.05
2019-05-14T00:15:23.688Z,85.15
2019-05-14T00:16:24.319Z,85.15
2019-05-14T00:17:23.524Z,85.34
2019-05-14T00:18:23.438Z,84.86
2019-05-14T00:19:23.363Z,84.67
2019-05-14T00:20:23.287Z,85.00
2019-05-14T00:21:23.189Z,84.91
2019-05-14T00:22:23.118Z,85.15
2019-05-14T00:23:23.025Z,84.67
2019-05-14T00:24:22.939Z,84.39
2019-05-14T00:25:22.864Z,84.29
2019-05-14T00:26:22.790Z,84.77
2019-05-14T00:27:22.689Z,85.00
2019-05-14T00:28:22.622Z,84.43
2019-05-14T00:29:22.527Z,84.10
2019-05-14T00:30:22.440Z,84.52
2019-05-14T00:31:22.365Z,84.29
2019-05-14T00:32:22.290Z,84.48
2019-05-14T00:33:22.634Z,83.82
2019-05-14T00:34:22.121Z,84.01
2019-05-14T00:35:22.026Z,84.48
2019-05-14T00:36:21.952Z,84.10
2019-05-14T00:37:21.929Z,84.01
2019-05-14T00:38:22.513Z,83.82
2019-05-14T00:39:21.702Z,84.10
2019-05-14T00:40:22.049Z,84.20
2019-05-14T00:41:21.662Z,83.91
2019-05-14T00:42:21.673Z,83.91
2019-05-14T00:43:21.708Z,84.10
2019-05-14T00:44:21.603Z,83.62
2019-05-14T00:45:21.841Z,83.91
2019-05-14T00:46:21.294Z,84.01
2019-05-14T00:47:21.667Z,84.10
2019-05-14T00:48:22.197Z,83.91
2019-05-14T00:49:21.232Z,83.82
2019-05-14T00:50:21.637Z,83.76
2019-05-14T00:51:21.450Z,84.29
2019-05-14T00:52:22.216Z,83.91
2019-05-14T00:53:21.338Z,83.34
2019-05-14T00:54:21.502Z,83.62
2019-05-14T00:55:22.117Z,83.62
2019-05-14T00:56:21.605Z,83.34
2019-05-14T00:57:21.163Z,82.96
2019-05-14T00:58:21.800Z,83.53
2019-05-14T00:59:21.652Z,83.25
2019-05-14T01:00:21.872Z,83.91
2019-05-14T01:01:21.524Z,83.91
2019-05-14T01:02:21.599Z,83.82
2019-05-14T01:03:21.590Z,83.53
2019-05-14T01:04:19.632Z,83.62
2019-05-14T01:05:21.386Z,83.72
2019-05-14T01:06:21.728Z,83.72
2019-05-14T01:07:21.021Z,84.29
2019-05-14T01:08:21.328Z,83.34
2019-05-14T01:09:19.211Z,83.34
2019-05-14T01:10:19.132Z,83.34
2019-05-14T01:11:19.045Z,83.44
2019-05-14T01:12:21.256Z,83.62
2019-05-14T01:13:18.880Z,83.62
2019-05-14T01:14:20.770Z,83.53
2019-05-14T01:15:18.706Z,83.72
2019-05-14T01:16:18.633Z,83.34
2019-05-14T01:17:18.544Z,83.25
2019-05-14T01:18:18.456Z,83.72
2019-05-14T01:19:18.382Z,83.72
2019-05-14T01:20:18.295Z,83.62
2019-05-14T01:21:18.207Z,83.91
2019-05-14T01:22:18.145Z,83.82
2019-05-14T01:23:18.045Z,84.67
2019-05-14T01:24:17.958Z,84.95
2019-05-14T01:25:17.897Z,84.58
2019-05-14T01:26:17.795Z,85.05
2019-05-14T01:27:17.710Z,84.48
2019-05-14T01:28:17.633Z,85.43
2019-05-14T01:29:17.545Z,85.15
2019-05-14T01:30:17.460Z,84.95
2019-05-14T01:31:17.383Z,85.34
2019-05-14T01:32:17.297Z,85.24
2019-05-14T01:33:17.222Z,84.95
2019-05-14T01:34:17.134Z,85.24
2019-05-14T01:35:17.046Z,84.95
2019-05-14T01:36:16.972Z,85.24
2019-05-14T01:37:16.883Z,85.24
2019-05-14T01:38:16.799Z,85.05
2019-05-14T01:39:16.723Z,85.53
2019-05-14T01:40:16.633Z,85.62
2019-05-14T01:41:16.547Z,85.91
2019-05-14T01:42:16.472Z,86.19
2019-05-14T01:43:16.384Z,85.81
2019-05-14T01:44:16.297Z,86.10
2019-05-14T01:45:25.035Z,85.72
2019-05-14T01:46:16.135Z,86.19
2019-05-14T01:47:16.048Z,86.10
2019-05-14T01:48:15.974Z,85.72
2019-05-14T01:49:15.885Z,85.72
2019-05-14T01:50:15.798Z,85.91
2019-05-14T01:51:15.723Z,86.19
2019-05-14T01:52:15.635Z,86.19
2019-05-14T01:53:15.548Z,85.81
2019-05-14T01:54:15.474Z,86.00
2019-05-14T01:55:15.385Z,86.29
2019-05-14T01:56:15.310Z,86.29
2019-05-14T01:57:15.224Z,86.00
2019-05-14T01:58:15.137Z,86.19
2019-05-14T01:59:15.061Z,86.29
2019-05-14T02:00:14.978Z,85.91
2019-05-14T02:01:14.889Z,85.91
2019-05-14T02:02:14.800Z,86.29
2019-05-14T02:03:14.725Z,86.67
2019-05-14T02:04:14.636Z,86.47
2019-05-14T02:05:14.551Z,86.57
2019-05-14T02:06:14.474Z,86.57
2019-05-14T02:07:16.146Z,86.67
2019-05-14T02:08:14.313Z,86.67
2019-05-14T02:09:14.227Z,86.38
2019-05-14T02:10:14.137Z,86.57
2019-05-14T02:11:14.077Z,87.05
2019-05-14T02:12:13.976Z,86.95
2019-05-14T02:13:13.887Z,87.34
2019-05-14T02:14:13.813Z,87.34
2019-05-14T02:15:13.728Z,87.81
2019-05-14T02:16:13.646Z,87.62
2019-05-14T02:17:13.579Z,87.90
2019-05-14T02:18:13.476Z,88.57
2019-05-14T02:19:13.389Z,87.71
2019-05-14T02:20:13.313Z,87.90
2019-05-14T02:21:13.229Z,88.28
2019-05-14T02:22:13.139Z,88.19
2019-05-14T02:23:13.079Z,88.38
2019-05-14T02:24:12.977Z,88.28
2019-05-14T02:25:12.889Z,88.47
2019-05-14T02:26:12.815Z,89.04
2019-05-14T02:27:12.726Z,89.33
2019-05-14T02:28:12.639Z,89.14
2019-05-14T02:29:12.713Z,88.95
2019-05-14T02:30:12.480Z,89.04
2019-05-14T02:31:12.391Z,89.19
2019-05-14T02:32:12.315Z,89.14
2019-05-14T02:33:12.229Z,89.33
2019-05-14T02:34:12.141Z,89.42
2019-05-14T02:35:12.068Z,89.23
2019-05-14T02:36:11.980Z,89.76
2019-05-14T02:37:11.890Z,90.05
2019-05-14T02:38:11.820Z,90.23
2019-05-14T02:39:11.729Z,89.80
2019-05-14T02:40:11.642Z,90.42
2019-05-14T02:41:11.567Z,90.05
2019-05-14T02:42:11.517Z,89.76
2019-05-14T02:43:11.405Z,90.05
2019-05-14T02:44:11.315Z,89.86
2019-05-14T02:45:11.230Z,90.23
2019-05-14T02:46:16.213Z,90.23
2019-05-14T02:47:11.071Z,90.23
2019-05-14T02:48:10.982Z,90.71
2019-05-14T02:49:10.898Z,90.47
2019-05-14T02:50:10.834Z,90.61
2019-05-14T02:51:10.790Z,90.61
2019-05-14T02:52:10.647Z,91.38
2019-05-14T02:53:10.557Z,91.19
2019-05-14T02:54:10.488Z,91.19
2019-05-14T02:55:10.394Z,90.99
2019-05-14T02:56:10.622Z,91.28
2019-05-14T02:57:10.741Z,91.28
2019-05-14T02:58:10.187Z,91.38
2019-05-14T02:59:10.234Z,91.19
2019-05-14T03:00:10.299Z,91.28
2019-05-14T03:01:09.893Z,91.47
2019-05-14T03:02:10.371Z,91.66
2019-05-14T03:03:09.949Z,92.32
2019-05-14T03:04:09.651Z,92.13
2019-05-14T03:05:09.977Z,92.42
2019-05-14T03:06:09.619Z,92.04
2019-05-14T03:07:11.018Z,92.04
2019-05-14T03:08:09.314Z,92.04
2019-05-14T03:09:09.944Z,91.94
2019-05-14T03:10:10.061Z,92.04
2019-05-14T03:11:09.495Z,92.23
2019-05-14T03:12:10.008Z,92.04
2019-05-14T03:13:09.559Z,92.04
2019-05-14T03:14:09.150Z,91.94
2019-05-14T03:15:09.724Z,91.94
2019-05-14T03:16:22.138Z,92.42
2019-05-14T03:17:10.522Z,92.32
2019-05-14T03:18:09.265Z,92.13
2019-05-14T03:19:10.048Z,92.42
2019-05-14T03:20:09.071Z,92.51
2019-05-14T03:21:09.314Z,92.80
2019-05-14T03:22:10.073Z,93.18
2019-05-14T03:23:12.623Z,93.18
2019-05-14T03:24:09.471Z,93.37
2019-05-14T03:25:10.159Z,93.65
2019-05-14T03:26:09.612Z,93.18
2019-05-14T03:27:09.671Z,93.56
2019-05-14T03:28:09.261Z,93.65
2019-05-14T03:29:09.934Z,93.46
2019-05-14T03:30:12.681Z,93.75
2019-05-14T03:31:12.198Z,93.75
2019-05-14T03:32:11.849Z,93.56
2019-05-14T03:33:12.677Z,93.94
2019-05-14T03:34:12.678Z,94.32
2019-05-14T03:35:12.408Z,94.13
2019-05-14T03:36:15.089Z,93.94
2019-05-14T03:37:12.095Z,94.42
2019-05-14T03:38:09.226Z,95.08
2019-05-14T03:39:10.202Z,95.08
2019-05-14T03:40:09.278Z,94.79
2019-05-14T03:41:09.131Z,95.75
2019-05-14T03:42:09.202Z,95.55
2019-05-14T03:43:08.924Z,95.46
2019-05-14T03:44:09.593Z,95.75
2019-05-14T03:45:08.453Z,95.84
2019-05-14T03:46:09.460Z,96.03
2019-05-14T03:47:09.960Z,96.22
2019-05-14T03:48:05.973Z,96.12
2019-05-14T03:49:09.093Z,96.12
2019-05-14T03:50:05.817Z,96.41
2019-05-14T03:51:08.813Z,96.31
2019-05-14T03:52:05.649Z,96.79
2019-05-14T03:53:05.566Z,96.79
2019-05-14T03:54:07.771Z,96.98
2019-05-14T03:55:05.404Z,96.69
2019-05-14T03:56:05.312Z,97.92
2019-05-14T03:57:05.225Z,97.45
2019-05-14T03:58:05.150Z,98.02
2019-05-14T03:59:05.126Z,98.31
2019-05-14T04:00:04.974Z,97.83
2019-05-14T04:01:04.887Z,97.64
2019-05-14T04:02:04.813Z,98.31
2019-05-14T04:03:04.735Z,98.21
2019-05-14T04:04:04.650Z,98.31
2019-05-14T04:05:04.565Z,98.40
2019-05-14T04:06:04.475Z,98.79
2019-05-14T04:07:04.404Z,98.59
2019-05-14T04:08:04.314Z,98.69
2019-05-14T04:09:04.227Z,99.16
2019-05-14T04:10:04.139Z,98.88
2019-05-14T04:11:04.071Z,99.16
2019-05-14T04:12:03.976Z,98.40
2019-05-14T04:13:03.889Z,98.50
2019-05-14T04:14:03.818Z,98.50
2019-05-14T04:15:03.738Z,98.50
2019-05-14T04:16:03.640Z,98.69
2019-05-14T04:17:09.518Z,98.69
2019-05-14T04:18:03.491Z,98.69
2019-05-14T04:19:03.398Z,98.55
2019-05-14T04:20:03.320Z,98.59
2019-05-14T04:21:03.249Z,98.45
2019-05-14T04:22:03.151Z,98.31
2019-05-14T04:23:03.073Z,98.36
2019-05-14T04:24:02.996Z,98.45
2019-05-14T04:25:02.897Z,98.45
2019-05-14T04:26:02.809Z,98.45
2019-05-14T04:27:07.690Z,98.45
2019-05-14T04:28:02.642Z,97.78
2019-05-14T04:29:02.576Z,97.41
2019-05-14T04:30:02.495Z,96.89
2019-05-14T04:31:02.397Z,95.94
2019-05-14T04:32:02.309Z,95.75
2019-05-14T04:33:02.232Z,95.75
2019-05-14T04:34:02.142Z,95.27
2019-05-14T04:35:02.062Z,94.79
2019-05-14T04:36:01.985Z,94.79
2019-05-14T04:37:01.893Z,94.18
2019-05-14T04:38:01.806Z,93.23
2019-05-14T04:39:01.728Z,92.03
2019-05-14T04:40:01.683Z,91.27
2019-05-14T04:41:01.571Z,90.89
2019-05-14T04:42:01.479Z,89.61
2019-05-14T04:43:01.411Z,89.41
2019-05-14T04:44:01.318Z,88.84
2019-05-14T04:45:05.459Z,87.98
2019-05-14T04:46:01.144Z,87.51
2019-05-14T04:47:20.203Z,87.70
2019-05-14T04:48:00.980Z,88.27
2019-05-14T04:49:00.894Z,87.51
2019-05-14T04:50:00.831Z,87.60
2019-05-14T04:51:00.799Z,87.03
2019-05-14T04:52:00.669Z,87.23
2019-05-14T04:53:00.573Z,88.08
2019-05-14T04:54:00.484Z,87.89
2019-05-14T04:55:00.408Z,87.98
2019-05-14T04:56:00.419Z,88.37
2019-05-14T04:57:00.343Z,87.98
2019-05-14T04:58:00.158Z,88.27
2019-05-14T04:59:00.074Z,88.60
2019-05-14T05:00:00.096Z,88.99
2019-05-14T05:01:00.913Z,89.18
2019-05-14T05:02:00.280Z,88.99
2019-05-14T05:03:00.153Z,88.99
2019-05-14T05:03:59.660Z,89.56
2019-05-14T05:04:59.693Z,89.84
2019-05-14T05:05:59.496Z,89.56
2019-05-14T05:06:59.477Z,90.42
2019-05-14T05:07:59.848Z,90.32
2019-05-14T05:09:00.090Z,90.42
2019-05-14T05:09:59.501Z,90.61
2019-05-14T05:11:00.044Z,91.08
2019-05-14T05:11:59.771Z,90.61
2019-05-14T05:12:58.923Z,90.42
2019-05-14T05:13:59.409Z,91.84
2019-05-14T05:14:58.836Z,91.46
2019-05-14T05:15:59.469Z,90.66
2019-05-14T05:16:59.698Z,90.84
2019-05-14T05:17:58.969Z,91.13
2019-05-14T05:18:59.511Z,91.70
2019-05-14T05:19:59.337Z,92.27
2019-05-14T05:20:58.407Z,92.51
2019-05-14T05:21:58.740Z,92.13
2019-05-14T05:22:59.057Z,91.46
2019-05-14T05:23:58.480Z,91.94
2019-05-14T05:24:58.930Z,92.22
2019-05-14T05:25:58.465Z,92.41
2019-05-14T05:26:58.528Z,92.51
2019-05-14T05:27:59.832Z,92.60
2019-05-14T05:29:03.571Z,91.94
2019-05-14T05:29:59.037Z,92.51
2019-05-14T05:30:58.593Z,92.51
2019-05-14T05:31:59.321Z,91.60
2019-05-14T05:32:59.520Z,92.51
2019-05-14T05:33:58.221Z,91.46
2019-05-14T05:34:58.634Z,91.99
2019-05-14T05:35:59.078Z,91.60
2019-05-14T05:36:58.996Z,92.36
2019-05-14T05:37:58.347Z,91.60
2019-05-14T05:38:59.070Z,92.08
2019-05-14T05:39:58.380Z,91.56
2019-05-14T05:40:57.735Z,92.51
2019-05-14T05:41:58.334Z,92.70
2019-05-14T05:42:58.186Z,92.60
2019-05-14T05:43:58.693Z,92.94
2019-05-14T05:44:58.638Z,92.65
2019-05-14T05:45:56.199Z,92.46
2019-05-14T05:46:56.116Z,92.27
2019-05-14T05:47:59.075Z,92.55
2019-05-14T05:48:55.951Z,91.65
2019-05-14T05:49:57.974Z,91.22
2019-05-14T05:50:55.787Z,91.60
2019-05-14T05:51:55.711Z,91.60
2019-05-14T05:52:55.698Z,92.65
2019-05-14T05:53:55.538Z,92.18
2019-05-14T05:54:55.463Z,92.55
2019-05-14T05:55:55.378Z,92.36
2019-05-14T05:56:55.300Z,91.56
2019-05-14T05:57:55.212Z,92.13
2019-05-14T05:58:55.138Z,92.51
2019-05-14T05:59:55.051Z,92.99
2019-05-14T06:00:54.964Z,92.18
2019-05-14T06:01:54.891Z,91.60
2019-05-14T06:02:54.802Z,92.36
2019-05-14T06:03:54.727Z,92.55
2019-05-14T06:04:54.639Z,92.27
2019-05-14T06:05:54.551Z,92.55
2019-05-14T06:06:54.478Z,92.65
2019-05-14T06:07:54.401Z,92.84
2019-05-14T06:08:54.314Z,92.08
2019-05-14T06:09:54.229Z,92.55
2019-05-14T06:10:54.152Z,92.08
2019-05-14T06:11:54.067Z,91.99
2019-05-14T06:12:53.977Z,92.55
2019-05-14T06:13:53.902Z,92.22
2019-05-14T06:14:53.814Z,93.18
2019-05-14T06:15:53.739Z,92.36
2019-05-14T06:16:53.652Z,93.13
2019-05-14T06:17:53.566Z,93.03
2019-05-14T06:18:53.489Z,92.36
2019-05-14T06:19:53.403Z,91.79
2019-05-14T06:20:53.327Z,91.27
2019-05-14T06:21:53.241Z,91.17
2019-05-14T06:22:53.166Z,91.31
2019-05-14T06:23:53.081Z,90.94
2019-05-14T06:24:52.991Z,91.60
2019-05-14T06:25:52.916Z,91.60
2019-05-14T06:26:52.828Z,91.51
2019-05-14T06:27:52.754Z,92.03
2019-05-14T06:28:52.665Z,90.89
2019-05-14T06:29:54.408Z,91.22
2019-05-14T06:30:52.504Z,91.36
2019-05-14T06:31:52.429Z,91.22
2019-05-14T06:32:52.347Z,91.08
2019-05-14T06:33:52.258Z,90.70
2019-05-14T06:34:52.180Z,89.94
2019-05-14T06:35:52.094Z,89.84
2019-05-14T06:36:52.018Z,90.22
2019-05-14T06:37:51.930Z,89.75
2019-05-14T06:38:51.857Z,89.40
2019-05-14T06:39:51.780Z,88.55
2019-05-14T06:40:51.692Z,87.79
2019-05-14T06:41:51.607Z,87.69
2019-05-14T06:42:51.540Z,87.69
2019-05-14T06:43:51.442Z,86.69
2019-05-14T06:44:51.367Z,86.69
2019-05-14T06:45:51.283Z,86.02
2019-05-14T06:46:52.880Z,85.93
2019-05-14T06:47:51.118Z,85.54
2019-05-14T06:48:51.032Z,86.21
2019-05-14T06:49:50.957Z,86.21
2019-05-14T06:50:50.913Z,86.11
2019-05-14T06:51:50.807Z,86.02
2019-05-14T06:52:50.706Z,85.93
2019-05-14T06:53:50.631Z,86.07
2019-05-14T06:54:50.545Z,86.74
2019-05-14T06:55:50.468Z,86.83
2019-05-14T06:56:50.383Z,87.50
2019-05-14T06:57:50.315Z,87.79
2019-05-14T06:58:50.221Z,86.36
2019-05-14T06:59:50.144Z,86.55
2019-05-14T07:00:50.069Z,86.93
2019-05-14T07:01:49.982Z,87.02
2019-05-14T07:02:49.908Z,86.83
2019-05-14T07:03:49.820Z,86.55
2019-05-14T07:04:49.737Z,87.02
2019-05-14T07:05:49.657Z,86.65
2019-05-14T07:06:49.572Z,87.12
2019-05-14T07:07:49.565Z,87.12
2019-05-14T07:08:52.436Z,87.12
2019-05-14T07:09:49.334Z,86.83
2019-05-14T07:10:49.247Z,86.49
2019-05-14T07:11:49.371Z,85.35
2019-05-14T07:12:49.877Z,86.16
2019-05-14T07:13:49.357Z,85.54
2019-05-14T07:14:48.922Z,84.88
2019-05-14T07:15:49.140Z,83.44
2019-05-14T07:16:48.770Z,84.40
2019-05-14T07:17:48.888Z,84.20
2019-05-14T07:18:52.781Z,83.83
2019-05-14T07:19:49.085Z,82.59
2019-05-14T07:20:48.656Z,82.97
2019-05-14T07:21:49.215Z,82.11
2019-05-14T07:22:48.426Z,82.40
2019-05-14T07:23:48.911Z,82.78
2019-05-14T07:24:49.758Z,82.78
2019-05-14T07:25:48.328Z,83.64
2019-05-14T07:26:49.371Z,82.24
2019-05-14T07:27:48.997Z,82.06
2019-05-14T07:28:48.849Z,81.01
2019-05-14T07:29:49.187Z,79.90
2019-05-14T07:30:48.494Z,79.43
2019-05-14T07:31:48.944Z,79.43
2019-05-14T07:32:48.420Z,79.28
2019-05-14T07:33:49.362Z,79.38
2019-05-14T07:34:48.139Z,79.35
2019-05-14T07:35:48.758Z,79.35
2019-05-14T07:36:49.074Z,80.05
2019-05-14T07:37:48.889Z,81.38
2019-05-14T07:38:49.014Z,81.20
2019-05-14T07:39:48.690Z,79.86
2019-05-14T07:40:49.210Z,80.24
2019-05-14T07:41:48.267Z,80.68
2019-05-14T07:42:48.574Z,81.73
2019-05-14T07:43:48.290Z,82.34
2019-05-14T07:44:48.324Z,81.48
2019-05-14T07:45:48.894Z,79.46
2019-05-14T07:46:48.172Z,77.84
2019-05-14T07:47:46.263Z,78.75
2019-05-14T07:49:02.180Z,78.94
2019-05-14T07:49:46.114Z,77.36
2019-05-14T07:50:49.216Z,75.52
2019-05-14T07:51:47.999Z,75.39
2019-05-14T07:52:45.952Z,75.93
2019-05-14T07:53:45.809Z,77.51
2019-05-14T07:54:48.016Z,76.54
2019-05-14T07:55:45.625Z,75.05
2019-05-14T07:56:45.550Z,75.01
2019-05-14T07:57:47.715Z,74.19
2019-05-14T07:58:45.389Z,74.24
2019-05-14T07:59:45.314Z,74.44
2019-05-14T08:00:45.227Z,74.30
2019-05-14T08:01:45.154Z,74.88
2019-05-14T08:02:45.077Z,75.13
2019-05-14T08:03:44.989Z,76.08
2019-05-14T08:04:44.914Z,76.46
2019-05-14T08:05:44.838Z,77.61
2019-05-14T08:06:44.751Z,77.89
2019-05-14T08:07:44.677Z,78.85
2019-05-14T08:08:44.601Z,76.81
2019-05-14T08:09:44.516Z,75.95
2019-05-14T08:10:44.439Z,76.14
2019-05-14T08:11:44.365Z,75.98
2019-05-14T08:12:44.277Z,75.03
2019-05-14T08:13:44.203Z,73.48
2019-05-14T08:14:57.105Z,71.53
2019-05-14T08:15:44.041Z,71.15
2019-05-14T08:16:43.965Z,71.72
2019-05-14T08:17:43.877Z,72.36
2019-05-14T08:18:43.803Z,72.17
2019-05-14T08:19:43.728Z,72.93
2019-05-14T08:20:43.641Z,72.49
2019-05-14T08:21:43.567Z,69.79
2019-05-14T08:22:43.480Z,69.98
2019-05-14T08:23:43.405Z,67.88
2019-05-14T08:24:43.328Z,67.40
2019-05-14T08:25:43.253Z,67.75
2019-05-14T08:26:44.204Z,67.88
2019-05-14T08:27:43.092Z,67.49
2019-05-14T08:28:43.005Z,67.78
2019-05-14T08:29:42.953Z,67.49
2019-05-14T08:30:42.869Z,67.65
2019-05-14T08:31:42.782Z,68.99
2019-05-14T08:32:42.692Z,68.04
2019-05-14T08:33:42.618Z,68.51
2019-05-14T08:34:42.542Z,67.62
2019-05-14T08:35:42.454Z,67.84
2019-05-14T08:36:42.380Z,66.51
2019-05-14T08:37:42.304Z,63.48
2019-05-14T08:38:45.411Z,62.27
2019-05-14T08:39:42.245Z,63.13
2019-05-14T08:40:42.075Z,63.99
2019-05-14T08:41:41.995Z,65.52
2019-05-14T08:42:41.905Z,65.90
2019-05-14T08:43:41.831Z,64.62
2019-05-14T08:44:41.755Z,65.11
2019-05-14T08:45:41.680Z,64.56
2019-05-14T08:46:44.709Z,65.39
2019-05-14T08:47:41.526Z,64.91
2019-05-14T08:48:41.444Z,66.54
2019-05-14T08:49:46.291Z,65.97
2019-05-14T08:50:41.281Z,66.13
2019-05-14T08:51:41.211Z,67.08
2019-05-14T08:52:41.131Z,66.60
2019-05-14T08:53:41.059Z,66.70
2019-05-14T08:54:40.970Z,67.75
2019-05-14T08:55:40.895Z,67.46
2019-05-14T08:56:40.822Z,67.08
2019-05-14T08:57:40.781Z,67.24
2019-05-14T08:58:40.657Z,67.62
2019-05-14T08:59:40.584Z,69.05
2019-05-14T09:00:40.508Z,69.91
2019-05-14T09:01:56.925Z,70.20
2019-05-14T09:02:40.346Z,70.39
2019-05-14T09:03:40.277Z,69.72
2019-05-14T09:04:43.090Z,70.01
2019-05-14T09:05:40.108Z,68.99
2019-05-14T09:06:40.046Z,68.58
2019-05-14T09:07:39.959Z,66.13
2019-05-14T09:08:39.873Z,64.59
2019-05-14T09:09:39.798Z,63.80
2019-05-14T09:10:40.244Z,63.54
2019-05-14T09:11:45.286Z,63.67
2019-05-14T09:12:39.560Z,62.97
2019-05-14T09:13:39.484Z,62.81
2019-05-14T09:14:39.408Z,63.19
2019-05-14T09:15:39.325Z,64.25
2019-05-14T09:16:46.490Z,64.62
2019-05-14T09:17:39.340Z,65.11
2019-05-14T09:18:39.086Z,66.03
2019-05-14T09:19:39.478Z,66.60
2019-05-14T09:20:38.935Z,66.50
2019-05-14T09:21:39.765Z,66.38
2019-05-14T09:22:39.809Z,63.96
2019-05-14T09:23:39.175Z,62.10
2019-05-14T09:24:38.872Z,60.70
2019-05-14T09:25:47.046Z,59.80
2019-05-14T09:26:39.092Z,57.45
2019-05-14T09:27:38.914Z,57.40
2019-05-14T09:28:39.186Z,56.41
2019-05-14T09:29:39.471Z,57.41
2019-05-14T09:30:38.282Z,59.48
2019-05-14T09:31:39.078Z,60.86
2019-05-14T09:32:38.836Z,61.25
2019-05-14T09:33:38.898Z,62.27
2019-05-14T09:34:39.373Z,62.52
2019-05-14T09:35:38.605Z,62.46
2019-05-14T09:36:39.531Z,61.19
2019-05-14T09:37:39.521Z,62.33
2019-05-14T09:38:41.968Z,63.10
2019-05-14T09:39:38.562Z,63.86
2019-05-14T09:40:39.565Z,63.83
2019-05-14T09:41:38.749Z,64.12
2019-05-14T09:42:39.268Z,63.45
2019-05-14T09:43:39.140Z,63.35
2019-05-14T09:44:38.768Z,62.11
2019-05-14T09:45:38.669Z,62.97
2019-05-14T09:46:38.456Z,63.16
2019-05-14T09:47:38.598Z,63.29
2019-05-14T09:48:38.063Z,62.04
2019-05-14T09:49:38.606Z,61.28
2019-05-14T09:50:38.323Z,60.55
2019-05-14T09:51:38.295Z,60.64
2019-05-14T09:52:38.899Z,60.00
2019-05-14T09:53:38.137Z,58.98
2019-05-14T09:54:39.376Z,57.99
2019-05-14T09:55:38.667Z,57.20
2019-05-14T09:56:36.127Z,58.92
2019-05-14T09:57:36.053Z,59.49
2019-05-14T09:58:38.504Z,60.06
2019-05-14T09:59:38.288Z,59.62
2019-05-14T10:00:35.815Z,59.05
2019-05-14T10:01:37.941Z,58.98
2019-05-14T10:02:35.664Z,58.40
2019-05-14T10:03:35.579Z,57.45
2019-05-14T10:04:35.511Z,57.61
2019-05-14T10:05:35.431Z,58.83
2019-05-14T10:06:35.354Z,59.78
2019-05-14T10:07:35.269Z,61.31
2019-05-14T10:08:35.190Z,62.43
2019-05-14T10:09:35.115Z,62.33
2019-05-14T10:10:35.042Z,63.19
2019-05-14T10:11:34.953Z,63.29
2019-05-14T10:12:39.506Z,63.73
2019-05-14T10:13:34.803Z,63.93
2019-05-14T10:14:34.717Z,64.40
2019-05-14T10:15:34.640Z,62.94
2019-05-14T10:16:34.565Z,63.70
2019-05-14T10:17:34.490Z,63.42
2019-05-14T10:18:34.404Z,63.99
2019-05-14T10:19:34.331Z,64.02
2019-05-14T10:20:41.177Z,64.02
2019-05-14T10:21:34.168Z,64.12
2019-05-14T10:22:34.092Z,64.50
2019-05-14T10:23:34.005Z,64.05
2019-05-14T10:24:33.930Z,63.76
2019-05-14T10:25:33.857Z,63.29
2019-05-14T10:26:33.766Z,62.81
2019-05-14T10:27:33.693Z,62.27
2019-05-14T10:28:33.611Z,61.98
2019-05-14T10:29:33.530Z,62.27
2019-05-14T10:30:33.458Z,61.95
2019-05-14T10:31:33.381Z,62.81
2019-05-14T10:32:33.292Z,62.81
2019-05-14T10:33:33.218Z,62.55
2019-05-14T10:34:33.130Z,62.55
2019-05-14T10:35:33.056Z,62.08
2019-05-14T10:36:32.981Z,61.98
2019-05-14T10:37:32.895Z,62.08
2019-05-14T10:38:32.819Z,62.37
2019-05-14T10:39:32.743Z,61.88
2019-05-14T10:40:32.659Z,61.98
2019-05-14T10:41:32.581Z,61.66
2019-05-14T10:42:32.507Z,60.23
2019-05-14T10:43:32.419Z,60.52
2019-05-14T10:44:32.345Z,60.42
2019-05-14T10:45:32.270Z,59.84
2019-05-14T10:46:32.212Z,59.75
2019-05-14T10:47:32.107Z,59.75
2019-05-14T10:48:32.033Z,60.61
2019-05-14T10:49:31.946Z,60.42
2019-05-14T10:50:31.872Z,60.61
2019-05-14T10:51:31.795Z,60.04
2019-05-14T10:52:31.713Z,60.13
2019-05-14T10:53:31.638Z,58.34
2019-05-14T10:54:31.558Z,55.88
2019-05-14T10:55:31.472Z,55.38
2019-05-14T10:56:31.395Z,56.15
2019-05-14T10:57:31.323Z,56.56
2019-05-14T10:58:31.247Z,55.96
2019-05-14T10:59:31.158Z,57.07
2019-05-14T11:00:31.090Z,57.29
2019-05-14T11:01:31.010Z,57.46
2019-05-14T11:02:30.922Z,58.12
2019-05-14T11:03:30.852Z,58.67
2019-05-14T11:04:34.000Z,60.49
2019-05-14T11:05:30.685Z,59.81
2019-05-14T11:06:30.611Z,59.78
2019-05-14T11:07:30.534Z,59.50
2019-05-14T11:08:30.448Z,58.67
2019-05-14T11:09:30.371Z,57.80
2019-05-14T11:10:30.302Z,57.13
2019-05-14T11:11:30.228Z,56.84
2019-05-14T11:12:30.136Z,56.45
2019-05-14T11:13:30.061Z,53.07
2019-05-14T11:14:31.682Z,53.64
2019-05-14T11:15:29.898Z,54.28
2019-05-14T11:16:29.825Z,52.95
2019-05-14T11:17:29.747Z,52.14
2019-05-14T11:18:29.686Z,51.93
2019-05-14T11:19:29.586Z,47.72
2019-05-14T11:20:31.225Z,47.39
2019-05-14T11:21:30.118Z,47.51
2019-05-14T11:22:29.361Z,47.94
2019-05-14T11:23:29.774Z,49.31
2019-05-14T11:24:29.642Z,51.61
2019-05-14T11:25:29.137Z,53.20
2019-05-14T11:26:29.462Z,53.47
2019-05-14T11:27:29.210Z,54.88
2019-05-14T11:28:28.947Z,56.28
2019-05-14T11:29:29.521Z,57.53
2019-05-14T11:30:28.970Z,58.95
2019-05-14T11:31:29.486Z,59.15
2019-05-14T11:32:29.106Z,59.24
2019-05-14T11:33:29.664Z,59.63
2019-05-14T11:34:28.887Z,58.67
2019-05-14T11:35:28.842Z,58.83
2019-05-14T11:36:29.278Z,59.22
2019-05-14T11:37:28.241Z,59.02
2019-05-14T11:38:33.763Z,58.36
2019-05-14T11:39:28.808Z,58.64
2019-05-14T11:40:29.371Z,58.83
2019-05-14T11:41:27.889Z,58.95
2019-05-14T11:42:31.467Z,58.12
2019-05-14T11:43:28.703Z,57.29
2019-05-14T11:44:28.622Z,55.47
2019-05-14T11:45:27.576Z,54.61
2019-05-14T11:46:41.719Z,55.19
2019-05-14T11:47:27.414Z,55.19
2019-05-14T11:48:27.353Z,55.38
2019-05-14T11:49:27.271Z,56.43
2019-05-14T11:50:28.702Z,56.02
2019-05-14T11:51:56.155Z,55.83
2019-05-14T11:52:28.696Z,56.28
2019-05-14T11:53:26.939Z,57.11
2019-05-14T11:54:29.044Z,57.68
2019-05-14T11:55:26.792Z,57.50
2019-05-14T11:56:26.702Z,56.82
2019-05-14T11:57:26.627Z,57.11
2019-05-14T11:58:29.258Z,57.59
2019-05-14T11:59:28.335Z,57.31
2019-05-14T12:00:29.162Z,57.11
2019-05-14T12:01:26.316Z,58.16
2019-05-14T12:02:28.796Z,57.31
2019-05-14T12:03:28.461Z,56.82
2019-05-14T12:04:28.223Z,56.63
2019-05-14T12:05:25.991Z,57.81
2019-05-14T12:06:25.916Z,57.53
2019-05-14T12:07:27.942Z,58.38
2019-05-14T12:08:25.759Z,58.38
2019-05-14T12:09:28.207Z,57.43
2019-05-14T12:10:25.592Z,56.76
2019-05-14T12:11:25.516Z,57.24
2019-05-14T12:12:25.436Z,57.62
2019-05-14T12:13:29.859Z,56.76
2019-05-14T12:14:25.278Z,56.76
2019-05-14T12:15:25.192Z,57.43
2019-05-14T12:16:25.119Z,56.09
2019-05-14T12:17:25.044Z,55.80
2019-05-14T12:18:24.953Z,55.04
2019-05-14T12:19:24.879Z,55.23
2019-05-14T12:20:24.792Z,54.66
2019-05-14T12:21:24.718Z,54.56
2019-05-14T12:22:24.649Z,54.56
2019-05-14T12:23:24.555Z,53.32
2019-05-14T12:24:24.486Z,53.89
2019-05-14T12:25:24.407Z,55.04
2019-05-14T12:26:24.329Z,55.13
2019-05-14T12:27:24.244Z,54.88
2019-05-14T12:28:24.156Z,53.61
2019-05-14T12:29:24.086Z,54.56
2019-05-14T12:30:23.994Z,54.97
2019-05-14T12:31:23.918Z,54.97
2019-05-14T12:32:23.846Z,55.07
2019-05-14T12:33:23.782Z,55.35
2019-05-14T12:34:23.681Z,55.07
2019-05-14T12:35:23.607Z,54.02
2019-05-14T12:36:23.520Z,53.44
2019-05-14T12:37:23.445Z,53.56
2019-05-14T12:38:23.358Z,53.18
2019-05-14T12:39:23.281Z,53.23
2019-05-14T12:40:23.220Z,50.96
2019-05-14T12:41:23.121Z,48.13
2019-05-14T12:42:23.049Z,46.14
2019-05-14T12:43:22.969Z,44.44
2019-05-14T12:44:22.897Z,43.88
2019-05-14T12:45:22.820Z,43.60
2019-05-14T12:46:22.735Z,43.46
2019-05-14T12:47:22.662Z,44.49
2019-05-14T12:48:22.584Z,45.72
2019-05-14T12:49:22.509Z,46.17
2019-05-14T12:50:22.432Z,47.58
2019-05-14T12:51:22.346Z,48.16